Terminal Aerodrome Forecast
Issued by NWS

Home | Current Version | Previous Version | Text Only | Print | Product List | Glossary On
Versions: 1 2 3 4 5 6 7 8 9 10 11 12 13 14 15 16 17 18 19 20 21 22 23 24 25 26 27 28 29
000
FTUS45 KGJT 222343
TAFDRO
TAF
KDRO 222343Z 2300/2324 23008KT P6SM SCT100
     FM230200 34005KT P6SM FEW220
     FM231600 28007KT P6SM SCT220
     FM232000 28007KT P6SM FEW140 SCT220=

USA.gov is the U.S. government's official web portal to all federal, state and local government web resources and services.